Jefferson City, MO

2:35 PM CDT on April 24, 2017 (GMT -0500)
E McCarty & Robinson Rd. | | Change Station

Elev 751 ft 38.55 °N, 92.12 °W | Updated 22 seconds ago

Clear
Clear
80.1 °F
Feels Like 79 °F
N
10.0
Wind Variable Wind from ESE

Today
High -- | Low -- °F
--% Chance of Precip.
Yesterday
High -- | Low -- °F
Precip. -- in
Pressure 29.78 in
Visibility 10.0 miles
Clouds Clear
Heat Index 79 °F
Dew Point 34 °F
Humidity 19%
Rainfall 0.00 in
Snow Depth Not available.
6:19 AM 7:54 PM
Waning Crescent, 4% visible
METAR KJEF 241853Z 15010G17KT 10SM CLR 24/M02 A2981 RMK AO2 SLP082 T02441022
Pressure 29.78 in
Visibility 10.0 miles
Clouds Clear
Heat Index 79 °F
Dew Point 34 °F
Humidity 19%
Rainfall 0.00 in
Snow Depth Not available.
6:19 AM 7:54 PM
Waning Crescent, 4% visible
METAR KJEF 241853Z 15010G17KT 10SM CLR 24/M02 A2981 RMK AO2 SLP082 T02441022

Get Severe Weather Alerts

Thanks for signing up!

Be on the lookout for a verification email in your inbox.

You'll start receiving the daily forecast at 8 AM.

×

10-Day Weather Forecast

Almanac

Astronomy

Apr. 24, 2017 Rise Set
Actual Time
Civil Twilight
Nautical Twilight
Astronomical Twilight
Moon
Length of Visible Light
Length of Day
Tomorrow will be .
, % of the Moon is Illuminated

Today's Extremes

State Highs State Lows

Community

WunderPhotos

WunderBlog® & News

Nearby

Air Quality

  Air Quality AQ Index Pollutant
Not available.

Snow Depth

Station Depth Elevation

Earthquake Activity

City Distance Mag. Time & Date
Minimum magnitude displayed is 2.5.

Coastal Water Temperatures

Place Temperature

Stations

Nearby Weather Stations

Station Location Temp. Windchill Dew Point Humidity Wind Precip. Elev Updated Type
                   

Watches & Warnings

There are currently no watches in effect.